createdAt,value
2022-12-11T00:02:13.513Z,95326.72
2022-12-11T00:04:44.709Z,95331.09
2022-12-11T00:07:13.108Z,95327.47
2022-12-11T00:09:41.283Z,95333.75
2022-12-11T00:12:17.853Z,95337.22
2022-12-11T00:14:54.231Z,95331.09
2022-12-11T00:17:23.298Z,95326.59
2022-12-11T00:19:50.426Z,95323.94
2022-12-11T00:22:19.984Z,95328.41
2022-12-11T00:24:46.715Z,95336.28
2022-12-11T00:27:13.772Z,95342.31
2022-12-11T00:29:42.457Z,95333.09
2022-12-11T00:32:13.731Z,95313.44
2022-12-11T00:34:40.820Z,95340.53
2022-12-11T00:37:08.425Z,95341.97
2022-12-11T00:39:40.183Z,95334.09
2022-12-11T00:42:10.071Z,95345.78
2022-12-11T00:44:41.559Z,95346.25
2022-12-11T00:47:08.490Z,95358.34
2022-12-11T00:49:49.513Z,95353.31
2022-12-11T00:52:18.083Z,95361.88
2022-12-11T00:54:45.253Z,95355.19
2022-12-11T00:57:12.844Z,95350.81
2022-12-11T00:59:44.780Z,95364.31
2022-12-11T01:02:12.418Z,95364.88
2022-12-11T01:04:41.077Z,95366.28
2022-12-11T01:07:07.894Z,95368.81
2022-12-11T01:09:53.675Z,95375.56
2022-12-11T01:12:28.553Z,95370.69
2022-12-11T01:14:55.654Z,95376.72
2022-12-11T01:17:29.115Z,95386.00
2022-12-11T01:19:55.752Z,95382.91
2022-12-11T01:22:22.986Z,95376.47
2022-12-11T01:24:53.190Z,95386.88
2022-12-11T01:27:20.341Z,95383.25
2022-12-11T01:29:49.521Z,95386.44
2022-12-11T01:32:16.270Z,95393.22
2022-12-11T01:34:46.038Z,95393.78
2022-12-11T01:37:14.185Z,95394.75
2022-12-11T01:39:41.121Z,95396.91
2022-12-11T01:42:17.583Z,95410.69
2022-12-11T01:44:45.558Z,95412.22
2022-12-11T01:47:12.566Z,95418.13
2022-12-11T01:49:40.420Z,95413.50
2022-12-11T01:52:15.284Z,95412.38
2022-12-11T01:54:42.072Z,95416.44
2022-12-11T01:57:09.408Z,95427.53
2022-12-11T01:59:38.356Z,95423.75
2022-12-11T02:02:08.728Z,95421.78
2022-12-11T02:04:36.581Z,95413.66
2022-12-11T02:07:03.802Z,95412.81
2022-12-11T02:09:36.090Z,95416.91
2022-12-11T02:12:08.888Z,95410.44
2022-12-11T02:14:56.395Z,95406.81
2022-12-11T02:17:28.586Z,95413.69
2022-12-11T02:19:58.034Z,95407.22
2022-12-11T02:22:40.620Z,95410.59
2022-12-11T02:25:15.035Z,95402.44
2022-12-11T02:27:47.826Z,95393.31
2022-12-11T02:30:16.247Z,95388.00
2022-12-11T02:32:50.355Z,95396.72
2022-12-11T02:35:17.750Z,95391.09
2022-12-11T02:37:46.885Z,95389.25
2022-12-11T02:40:18.116Z,95391.78
2022-12-11T02:42:47.103Z,95386.47
2022-12-11T02:45:14.622Z,95400.94
2022-12-11T02:47:41.983Z,95392.50
2022-12-11T02:50:12.482Z,95400.78
2022-12-11T02:52:41.658Z,95398.88
2022-12-11T02:55:11.290Z,95404.91
2022-12-11T02:58:00.365Z,95399.41
2022-12-11T03:00:27.262Z,95399.25
2022-12-11T03:02:53.855Z,95404.47
2022-12-11T03:05:20.651Z,95406.00
2022-12-11T03:07:47.394Z,95416.53
2022-12-11T03:10:15.785Z,95415.41
2022-12-11T03:12:45.443Z,95411.75
2022-12-11T03:15:18.221Z,95410.78
2022-12-11T03:17:44.784Z,95412.34
2022-12-11T03:20:35.028Z,95417.53
2022-12-11T03:23:33.676Z,95415.56
2022-12-11T03:26:09.093Z,95424.25
2022-12-11T03:28:50.406Z,95425.78
2022-12-11T03:31:24.152Z,95422.16
2022-12-11T03:33:53.752Z,95425.66
2022-12-11T03:36:25.849Z,95420.72
2022-12-11T03:39:02.211Z,95430.69
2022-12-11T03:41:31.665Z,95433.38
2022-12-11T03:44:00.134Z,95437.59
2022-12-11T03:46:32.155Z,95430.44
2022-12-11T03:49:03.012Z,95431.13
2022-12-11T03:51:31.105Z,95427.63
2022-12-11T03:53:58.475Z,95431.81
2022-12-11T03:56:25.694Z,95425.53
2022-12-11T03:58:52.305Z,95436.03
2022-12-11T04:01:19.326Z,95434.50
2022-12-11T04:03:45.935Z,95423.25
2022-12-11T04:06:12.553Z,95438.44
2022-12-11T04:08:39.423Z,95439.13
2022-12-11T04:11:24.327Z,95439.00
2022-12-11T04:14:10.932Z,95438.00
2022-12-11T04:16:39.088Z,95445.84
2022-12-11T04:19:24.238Z,95438.69
2022-12-11T04:22:10.028Z,95428.00
2022-12-11T04:24:36.622Z,95417.50
2022-12-11T04:27:03.282Z,95422.41
2022-12-11T04:29:30.358Z,95426.78
2022-12-11T04:31:57.012Z,95431.94
2022-12-11T04:34:23.901Z,95431.09
2022-12-11T04:36:50.816Z,95425.91
2022-12-11T04:39:17.894Z,95427.28
2022-12-11T04:41:44.475Z,95426.19
2022-12-11T04:44:11.231Z,95426.19
2022-12-11T04:46:37.930Z,95423.34
2022-12-11T04:49:04.680Z,95423.22
2022-12-11T04:51:32.132Z,95411.69
2022-12-11T04:53:59.448Z,95419.56
2022-12-11T04:56:26.549Z,95416.03
2022-12-11T04:58:53.225Z,95414.09
2022-12-11T05:01:22.489Z,95422.81
2022-12-11T05:03:49.900Z,95421.25
2022-12-11T05:06:16.821Z,95424.47
2022-12-11T05:08:45.118Z,95432.47
2022-12-11T05:11:14.856Z,95431.78
2022-12-11T05:13:42.170Z,95424.78
2022-12-11T05:16:10.279Z,95421.38
2022-12-11T05:18:37.083Z,95417.03
2022-12-11T05:21:07.353Z,95404.84
2022-12-11T05:23:34.917Z,95406.09
2022-12-11T05:26:11.569Z,95394.75
2022-12-11T05:28:39.269Z,95400.47
2022-12-11T05:31:08.878Z,95402.31
2022-12-11T05:33:35.627Z,95394.03
2022-12-11T05:36:02.944Z,95392.38
2022-12-11T05:38:30.406Z,95390.66
2022-12-11T05:40:58.819Z,95389.13
2022-12-11T05:43:26.509Z,95373.84
2022-12-11T05:45:53.160Z,95385.91
2022-12-11T05:48:20.038Z,95390.53
2022-12-11T05:50:57.436Z,95386.47
2022-12-11T05:53:24.257Z,95381.44
2022-12-11T05:55:50.885Z,95379.03
2022-12-11T05:58:17.460Z,95388.19
2022-12-11T06:00:44.567Z,95390.00
2022-12-11T06:03:11.870Z,95381.28
2022-12-11T06:05:40.016Z,95383.25
2022-12-11T06:08:06.704Z,95378.22
2022-12-11T06:10:34.075Z,95376.53
2022-12-11T06:13:00.781Z,95366.16
2022-12-11T06:15:27.335Z,95355.63
2022-12-11T06:17:54.022Z,95356.47
2022-12-11T06:20:20.539Z,95351.38
2022-12-11T06:22:47.341Z,95360.41
2022-12-11T06:25:13.999Z,95353.09
2022-12-11T06:27:40.726Z,95350.44
2022-12-11T06:30:08.066Z,95359.13
2022-12-11T06:32:34.700Z,95363.50
2022-12-11T06:35:01.263Z,95355.50
2022-12-11T06:37:28.546Z,95355.63
2022-12-11T06:39:55.082Z,95349.59
2022-12-11T06:42:21.697Z,95362.06
2022-12-11T06:44:48.360Z,95358.69
2022-12-11T06:47:14.941Z,95369.53
2022-12-11T06:49:41.531Z,95357.25
2022-12-11T06:52:08.188Z,95353.91
2022-12-11T06:54:34.729Z,95343.66
2022-12-11T06:57:02.064Z,95351.94
2022-12-11T06:59:29.272Z,95358.41
2022-12-11T07:01:56.448Z,95352.09
2022-12-11T07:04:25.339Z,95360.78
2022-12-11T07:06:51.934Z,95361.50
2022-12-11T07:09:18.498Z,95362.06
2022-12-11T07:11:45.269Z,95353.91
2022-12-11T07:14:12.035Z,95360.78
2022-12-11T07:16:38.724Z,95367.78
2022-12-11T07:19:05.452Z,95366.88
2022-12-11T07:21:32.195Z,95371.19
2022-12-11T07:23:59.073Z,95368.53
2022-12-11T07:26:25.833Z,95371.19
2022-12-11T07:28:52.681Z,95371.06
2022-12-11T07:31:22.224Z,95376.53
2022-12-11T07:34:02.602Z,95372.03
2022-12-11T07:36:30.313Z,95382.69
2022-12-11T07:38:59.053Z,95375.78
2022-12-11T07:41:27.706Z,95372.28
2022-12-11T07:43:55.056Z,95378.75
2022-12-11T07:46:24.297Z,95373.00
2022-12-11T07:48:51.100Z,95371.72
2022-12-11T07:51:28.793Z,95375.41
2022-12-11T07:54:00.600Z,95364.16
2022-12-11T07:56:28.333Z,95370.47
2022-12-11T07:58:55.095Z,95384.91
2022-12-11T08:01:23.920Z,95380.56
2022-12-11T08:03:50.835Z,95379.16
2022-12-11T08:06:18.300Z,95370.75
2022-12-11T08:08:44.874Z,95372.97
2022-12-11T08:11:13.876Z,95377.47
2022-12-11T08:13:41.219Z,95377.31
2022-12-11T08:16:10.270Z,95376.22
2022-12-11T08:18:37.822Z,95383.91
2022-12-11T08:21:31.221Z,95381.13
2022-12-11T08:23:58.026Z,95388.72
2022-12-11T08:26:26.928Z,95390.25
2022-12-11T08:28:54.281Z,95394.47
2022-12-11T08:31:21.755Z,95390.97
2022-12-11T08:33:48.987Z,95387.28
2022-12-11T08:36:18.373Z,95402.19
2022-12-11T08:38:49.776Z,95401.06
2022-12-11T08:41:27.341Z,95386.91
2022-12-11T08:43:55.167Z,95374.25
2022-12-11T08:46:24.144Z,95374.38
2022-12-11T08:48:51.042Z,95370.16
2022-12-11T08:51:20.724Z,95373.22
2022-12-11T08:53:48.654Z,95377.44
2022-12-11T08:56:19.271Z,95382.78
2022-12-11T08:58:46.363Z,95379.78
2022-12-11T09:01:18.506Z,95388.66
2022-12-11T09:03:45.826Z,95385.41
2022-12-11T09:06:15.629Z,95382.19
2022-12-11T09:08:48.705Z,95394.38
2022-12-11T09:11:23.967Z,95390.16
2022-12-11T09:13:50.746Z,95390.41
2022-12-11T09:16:18.874Z,95400.94
2022-12-11T09:18:47.421Z,95393.06
2022-12-11T09:21:17.216Z,95399.38
2022-12-11T09:23:45.574Z,95402.88
2022-12-11T09:26:14.511Z,95401.22
2022-12-11T09:28:46.200Z,95382.91
2022-12-11T09:31:16.262Z,95396.13
2022-12-11T09:33:43.192Z,95404.97
2022-12-11T09:36:10.076Z,95395.31
2022-12-11T09:38:36.774Z,95395.44
2022-12-11T09:41:26.919Z,95398.22
2022-12-11T09:44:14.810Z,95389.41
2022-12-11T09:46:41.848Z,95394.03
2022-12-11T09:49:22.788Z,95393.31
2022-12-11T09:52:38.059Z,95393.16
2022-12-11T09:55:15.167Z,95392.25
2022-12-11T09:57:46.944Z,95384.63
2022-12-11T10:00:22.534Z,95372.91
2022-12-11T10:03:07.170Z,95373.81
2022-12-11T10:05:53.706Z,95368.44
2022-12-11T10:08:39.067Z,95376.28
2022-12-11T10:11:05.511Z,95372.63
2022-12-11T10:13:43.710Z,95368.63
2022-12-11T10:16:13.006Z,95379.03
2022-12-11T10:18:42.771Z,95375.50
2022-12-11T10:21:09.783Z,95372.84
2022-12-11T10:23:52.612Z,95359.78
2022-12-11T10:26:21.799Z,95361.97
2022-12-11T10:28:49.028Z,95362.66
2022-12-11T10:31:34.708Z,95360.84
2022-12-11T10:34:03.695Z,95362.41
2022-12-11T10:36:38.775Z,95348.41
2022-12-11T10:39:22.250Z,95363.00
2022-12-11T10:41:53.754Z,95354.03
2022-12-11T10:44:29.808Z,95351.34
2022-12-11T10:47:14.964Z,95349.41
2022-12-11T10:49:51.795Z,95349.41
2022-12-11T10:52:28.072Z,95347.59
2022-12-11T10:54:58.771Z,95339.59
2022-12-11T10:57:34.367Z,95341.44
2022-12-11T11:00:01.662Z,95336.56
2022-12-11T11:02:40.395Z,95340.63
2022-12-11T11:05:29.290Z,95331.41
2022-12-11T11:08:23.636Z,95333.50
2022-12-11T11:10:56.597Z,95330.31
2022-12-11T11:13:25.092Z,95330.63
2022-12-11T11:16:09.796Z,95324.06
2022-12-11T11:18:36.567Z,95325.16
2022-12-11T11:21:04.098Z,95315.09
2022-12-11T11:23:30.816Z,95314.69
2022-12-11T11:25:59.885Z,95315.97
2022-12-11T11:28:33.350Z,95308.44
2022-12-11T11:31:07.162Z,95307.03
2022-12-11T11:33:35.470Z,95306.59
2022-12-11T11:36:07.250Z,95302.69
2022-12-11T11:38:37.776Z,95284.88
2022-12-11T11:41:25.614Z,95300.31
2022-12-11T11:43:55.682Z,95306.91
2022-12-11T11:46:36.637Z,95304.66
2022-12-11T11:49:24.444Z,95305.22
2022-12-11T11:52:30.809Z,95300.75
2022-12-11T11:55:22.040Z,95299.75
2022-12-11T11:58:09.408Z,95296.66
2022-12-11T12:00:36.073Z,95299.03
2022-12-11T12:03:10.183Z,95295.25
2022-12-11T12:05:39.980Z,95300.31
2022-12-11T12:08:15.756Z,95296.22
2022-12-11T12:11:10.652Z,95294.13
2022-12-11T12:14:02.682Z,95302.69
2022-12-11T12:16:53.782Z,95298.78
2022-12-11T12:20:01.889Z,95294.84
2022-12-11T12:22:38.667Z,95304.22
2022-12-11T12:25:24.353Z,95296.09
2022-12-11T12:28:05.014Z,95296.63
2022-12-11T12:30:58.497Z,95295.50
2022-12-11T12:34:00.422Z,95294.25
2022-12-11T12:36:53.316Z,95293.78
2022-12-11T12:39:40.337Z,95291.69
2022-12-11T12:42:15.638Z,95300.38
2022-12-11T12:44:54.928Z,95301.06
2022-12-11T12:47:22.286Z,95303.47
2022-12-11T12:49:50.066Z,95310.47
2022-12-11T12:52:20.805Z,95310.19
2022-12-11T12:55:10.020Z,95314.38
2022-12-11T12:57:37.953Z,95307.91
2022-12-11T13:00:12.585Z,95308.59
2022-12-11T13:02:51.690Z,95300.59
2022-12-11T13:05:36.827Z,95302.84
2022-12-11T13:08:05.453Z,95303.41
2022-12-11T13:10:37.251Z,95301.56
2022-12-11T13:13:05.856Z,95299.44
2022-12-11T13:15:40.906Z,95300.84
2022-12-11T13:18:33.433Z,95296.31
2022-12-11T13:21:00.971Z,95295.22
2022-12-11T13:23:32.919Z,95298.44
2022-12-11T13:26:02.174Z,95304.31
2022-12-11T13:28:33.233Z,95305.00
2022-12-11T13:31:07.710Z,95304.72
2022-12-11T13:33:39.225Z,95300.91
2022-12-11T13:36:24.986Z,95298.09
2022-12-11T13:39:02.937Z,95304.97
2022-12-11T13:41:30.396Z,95294.13
2022-12-11T13:43:57.525Z,95294.97
2022-12-11T13:46:29.062Z,95299.34
2022-12-11T13:49:00.946Z,95306.06
2022-12-11T13:51:30.021Z,95326.44
2022-12-11T13:54:17.369Z,95327.13
2022-12-11T13:57:25.951Z,95318.97
2022-12-11T13:59:54.754Z,95326.69
2022-12-11T14:02:26.817Z,95324.84
2022-12-11T14:04:56.826Z,95323.88
2022-12-11T14:07:43.133Z,95320.06
2022-12-11T14:10:20.200Z,95319.91
2022-12-11T14:12:49.432Z,95327.75
2022-12-11T14:15:16.261Z,95322.28
2022-12-11T14:17:48.497Z,95317.78
2022-12-11T14:20:27.867Z,95315.94
2022-12-11T14:23:19.748Z,95315.81
2022-12-11T14:26:16.738Z,95322.81
2022-12-11T14:28:48.571Z,95320.16
2022-12-11T14:31:18.212Z,95325.50
2022-12-11T14:33:52.204Z,95317.63
2022-12-11T14:36:20.880Z,95327.47
2022-12-11T14:38:49.918Z,95319.59
2022-12-11T14:41:20.189Z,95316.94
2022-12-11T14:43:53.183Z,95324.25
2022-12-11T14:46:37.479Z,95320.88
2022-12-11T14:49:12.151Z,95314.84
2022-12-11T14:51:40.854Z,95313.63
2022-12-11T14:54:11.205Z,95316.00
2022-12-11T14:56:39.627Z,95320.81
2022-12-11T14:59:09.073Z,95306.19
2022-12-11T15:01:37.450Z,95318.59
2022-12-11T15:04:22.419Z,95312.69
2022-12-11T15:06:50.204Z,95303.44
2022-12-11T15:09:36.119Z,95304.28
2022-12-11T15:12:11.802Z,95319.59
2022-12-11T15:14:51.549Z,95312.75
2022-12-11T15:17:19.099Z,95313.03
2022-12-11T15:19:51.586Z,95310.66
2022-12-11T15:22:21.044Z,95311.78
2022-12-11T15:24:50.456Z,95293.78
2022-12-11T15:27:30.761Z,95301.56
2022-12-11T15:29:57.626Z,95304.47
2022-12-11T15:32:24.734Z,95297.59
2022-12-11T15:34:59.645Z,95306.59
2022-12-11T15:37:30.636Z,95307.13
2022-12-11T15:39:59.372Z,95308.28
2022-12-11T15:42:29.473Z,95319.50
2022-12-11T15:44:57.534Z,95321.88
2022-12-11T15:47:27.349Z,95330.56
2022-12-11T15:49:55.535Z,95325.78
2022-12-11T15:52:23.235Z,95330.00
2022-12-11T15:54:49.877Z,95328.03
2022-12-11T15:57:19.571Z,95334.06
2022-12-11T15:59:48.770Z,95333.06
2022-12-11T16:02:16.363Z,95334.63
2022-12-11T16:04:43.158Z,95338.94
2022-12-11T16:07:17.990Z,95337.09
2022-12-11T16:09:46.311Z,95348.66
2022-12-11T16:12:14.234Z,95342.44
2022-12-11T16:14:41.939Z,95331.53
2022-12-11T16:17:11.183Z,95336.47
2022-12-11T16:19:40.143Z,95341.09
2022-12-11T16:22:08.850Z,95342.66
2022-12-11T16:24:35.889Z,95343.19
2022-12-11T16:27:03.051Z,95353.59
2022-12-11T16:29:34.288Z,95357.78
2022-12-11T16:32:01.128Z,95360.31
2022-12-11T16:34:28.784Z,95352.03
2022-12-11T16:36:58.314Z,95355.53
2022-12-11T16:39:25.024Z,95354.38
2022-12-11T16:41:51.604Z,95350.72
2022-12-11T16:44:22.030Z,95355.06
2022-12-11T16:46:50.774Z,95360.41
2022-12-11T16:49:17.708Z,95334.44
2022-12-11T16:51:44.532Z,95333.38
2022-12-11T16:54:11.891Z,95331.03
2022-12-11T16:56:38.607Z,95319.78
2022-12-11T16:59:05.450Z,95331.75
2022-12-11T17:01:32.389Z,95333.50
2022-12-11T17:03:59.304Z,95328.56
2022-12-11T17:06:26.259Z,95329.84
2022-12-11T17:08:53.337Z,95316.13
2022-12-11T17:11:22.295Z,95318.22
2022-12-11T17:13:53.971Z,95316.84
2022-12-11T17:16:22.236Z,95317.94
2022-12-11T17:18:49.123Z,95317.69
2022-12-11T17:21:21.219Z,95321.19
2022-12-11T17:23:48.623Z,95326.66
2022-12-11T17:26:15.705Z,95316.16
2022-12-11T17:28:42.385Z,95322.47
2022-12-11T17:31:20.324Z,95317.97
2022-12-11T17:33:47.559Z,95319.78
2022-12-11T17:36:20.151Z,95323.31
2022-12-11T17:38:50.497Z,95318.13
2022-12-11T17:41:20.704Z,95326.97
2022-12-11T17:43:49.456Z,95314.34
2022-12-11T17:46:16.313Z,95314.03
2022-12-11T17:48:43.040Z,95322.91
2022-12-11T17:51:11.160Z,95322.22
2022-12-11T17:53:37.871Z,95321.22
2022-12-11T17:56:06.580Z,95321.34
2022-12-11T17:58:34.813Z,95328.50
2022-12-11T18:01:07.876Z,95322.47
2022-12-11T18:03:35.199Z,95321.91
2022-12-11T18:06:06.053Z,95324.31
2022-12-11T18:08:32.944Z,95321.78
2022-12-11T18:11:14.160Z,95325.44
2022-12-11T18:13:41.444Z,95332.59
2022-12-11T18:16:30.854Z,95333.59
2022-12-11T18:18:58.125Z,95328.38
2022-12-11T18:21:28.029Z,95328.53
2022-12-11T18:23:55.364Z,95329.53
2022-12-11T18:26:22.293Z,95326.97
2022-12-11T18:28:52.005Z,95328.66
2022-12-11T18:31:19.609Z,95331.47
2022-12-11T18:33:46.901Z,95328.09
2022-12-11T18:36:15.654Z,95325.00
2022-12-11T18:38:44.238Z,95326.53
2022-12-11T18:41:13.283Z,95326.13
2022-12-11T18:43:40.470Z,95330.34
2022-12-11T18:46:15.711Z,95335.81
2022-12-11T18:48:42.692Z,95335.94
2022-12-11T18:51:12.081Z,95344.38
2022-12-11T18:53:40.439Z,95333.97
2022-12-11T18:56:09.073Z,95338.78
2022-12-11T18:58:35.806Z,95342.41
2022-12-11T19:01:08.066Z,95341.69
2022-12-11T19:03:35.003Z,95347.16
2022-12-11T19:06:28.561Z,95346.47
2022-12-11T19:08:57.274Z,95344.94
2022-12-11T19:11:25.702Z,95341.28
2022-12-11T19:13:53.691Z,95346.78
2022-12-11T19:16:41.679Z,95338.91
2022-12-11T19:19:17.808Z,95340.88
2022-12-11T19:21:45.547Z,95341.56
2022-12-11T19:24:15.288Z,95330.59
2022-12-11T19:26:42.723Z,95341.69
2022-12-11T19:29:09.565Z,95343.66
2022-12-11T19:31:36.830Z,95344.50
2022-12-11T19:34:04.008Z,95341.13
2022-12-11T19:36:31.715Z,95340.31
2022-12-11T19:39:01.815Z,95335.94
2022-12-11T19:41:30.440Z,95345.78
2022-12-11T19:43:58.124Z,95350.25
2022-12-11T19:46:25.489Z,95343.41
2022-12-11T19:48:54.117Z,95343.22
2022-12-11T19:51:36.392Z,95326.84
2022-12-11T19:54:03.205Z,95341.56
2022-12-11T19:56:30.030Z,95344.38
2022-12-11T19:58:57.488Z,95340.00
2022-12-11T20:01:28.729Z,95338.34
2022-12-11T20:03:57.777Z,95342.81
2022-12-11T20:06:24.916Z,95340.16
2022-12-11T20:08:52.257Z,95335.81
2022-12-11T20:11:19.300Z,95340.28
2022-12-11T20:13:49.355Z,95329.91
2022-12-11T20:16:19.962Z,95332.44
2022-12-11T20:18:54.475Z,95335.94
2022-12-11T20:21:21.164Z,95336.38
2022-12-11T20:23:48.150Z,95336.09
2022-12-11T20:26:23.717Z,95338.91
2022-12-11T20:28:51.795Z,95338.91
2022-12-11T20:31:21.106Z,95343.38
2022-12-11T20:33:49.392Z,95338.06
2022-12-11T20:36:17.560Z,95337.19
2022-12-11T20:38:44.368Z,95339.88
2022-12-11T20:41:15.512Z,95337.31
2022-12-11T20:43:42.351Z,95339.16
2022-12-11T20:46:12.356Z,95336.63
2022-12-11T20:48:40.417Z,95333.97
2022-12-11T20:51:08.236Z,95336.63
2022-12-11T20:53:36.857Z,95338.47
2022-12-11T20:56:10.145Z,95341.25
2022-12-11T20:58:38.349Z,95341.25
2022-12-11T21:01:05.254Z,95343.09
2022-12-11T21:03:34.505Z,95334.53
2022-12-11T21:06:07.020Z,95336.91
2022-12-11T21:08:33.569Z,95331.72
2022-12-11T21:11:00.174Z,95332.16
2022-12-11T21:13:26.699Z,95331.59
2022-12-11T21:15:57.189Z,95332.97
2022-12-11T21:18:23.814Z,95332.97
2022-12-11T21:20:56.007Z,95335.19
2022-12-11T21:23:22.791Z,95331.78
2022-12-11T21:25:53.342Z,95333.75
2022-12-11T21:28:20.702Z,95332.09
2022-12-11T21:30:48.181Z,95328.00
2022-12-11T21:33:15.250Z,95334.19
2022-12-11T21:35:42.186Z,95333.47
2022-12-11T21:38:08.930Z,95331.94
2022-12-11T21:40:35.780Z,95335.56
2022-12-11T21:43:02.508Z,95340.06
2022-12-11T21:45:59.965Z,95341.84
2022-12-11T21:48:15.771Z,95335.97
2022-12-11T21:50:42.857Z,95338.47
2022-12-11T21:53:10.170Z,95336.81
2022-12-11T21:55:39.939Z,95336.94
2022-12-11T21:58:06.948Z,95345.94
2022-12-11T22:00:36.271Z,95338.91
2022-12-11T22:03:03.066Z,95329.25
2022-12-11T22:05:29.694Z,95327.53
2022-12-11T22:07:56.358Z,95323.34
2022-12-11T22:10:22.936Z,95326.59
2022-12-11T22:12:49.594Z,95328.00
2022-12-11T22:15:16.302Z,95324.91
2022-12-11T22:17:42.857Z,95337.09
2022-12-11T22:20:10.014Z,95319.59
2022-12-11T22:22:36.642Z,95335.31
2022-12-11T22:25:06.899Z,95329.09
2022-12-11T22:27:34.149Z,95325.75
2022-12-11T22:30:01.028Z,95324.91
2022-12-11T22:32:27.792Z,95328.53
2022-12-11T22:34:56.248Z,95329.41
2022-12-11T22:37:26.421Z,95320.72
2022-12-11T22:39:52.973Z,95326.88
2022-12-11T22:42:21.092Z,95322.38
2022-12-11T22:44:47.649Z,95321.81
2022-12-11T22:47:15.939Z,95326.03
2022-12-11T22:49:42.569Z,95330.22
2022-12-11T22:52:09.985Z,95333.47
2022-12-11T22:54:41.301Z,95337.53
2022-12-11T22:57:08.728Z,95334.47
2022-12-11T22:59:36.640Z,95329.03
2022-12-11T23:02:03.790Z,95333.53
2022-12-11T23:04:30.711Z,95342.81
2022-12-11T23:06:58.013Z,95344.22
2022-12-11T23:09:27.220Z,95351.78
2022-12-11T23:12:02.392Z,95355.72
2022-12-11T23:14:29.337Z,95359.66
2022-12-11T23:16:56.258Z,95360.22
2022-12-11T23:19:25.663Z,95365.25
2022-12-11T23:21:53.045Z,95361.50
2022-12-11T23:24:19.677Z,95361.19
2022-12-11T23:26:48.003Z,95369.63
2022-12-11T23:29:14.724Z,95368.38
2022-12-11T23:31:41.278Z,95376.09
2022-12-11T23:34:07.928Z,95382.66
2022-12-11T23:36:34.499Z,95383.22
2022-12-11T23:39:01.066Z,95384.78
2022-12-11T23:41:28.202Z,95388.03
2022-12-11T23:43:54.928Z,95384.25
2022-12-11T23:46:23.042Z,95389.28
2022-12-11T23:48:50.556Z,95391.69
2022-12-11T23:51:18.567Z,95397.72
2022-12-11T23:53:45.748Z,95400.97
2022-12-11T23:56:18.983Z,95396.59
2022-12-11T23:58:47.412Z,95409.34
